Time;durP1;ratioP1;P1;durP2;ratioP2;P2;SDS_P1;SDS_P2;PMS_P1;PMS_P2;Temp;Humidity;BMP_temperature;BMP_pressure;BME280_temperature;BME280_humidity;BME280_pressure;Samples;Min_cycle;Max_cycle;Signal;HPM_P1;HPM_P2
2022/11/03 00:01:33;;;;;;;135.93;74.20;;;10.70;99.90;;;;;;5026151;28;20050;-70
2022/11/03 00:03:59;;;;;;;126.90;71.10;;;10.70;99.90;;;;;;5033593;28;20029;-70
2022/11/03 00:06:25;;;;;;;134.95;74.13;;;10.70;99.90;;;;;;5033313;28;20030;-70
2022/11/03 00:08:51;;;;;;;130.82;72.15;;;10.70;99.90;;;;;;5033462;28;20458;-70
2022/11/03 00:11:17;;;;;;;130.27;70.32;;;10.60;99.90;;;;;;5033210;28;20030;-70
2022/11/03 00:13:43;;;;;;;123.20;68.10;;;10.50;99.90;;;;;;5033604;28;20383;-70
2022/11/03 00:16:11;;;;;;;125.90;67.28;;;10.40;99.90;;;;;;5033621;28;20538;-70
2022/11/03 00:18:37;;;;;;;120.20;67.47;;;10.40;99.90;;;;;;5033574;28;20040;-70
2022/11/03 00:21:09;;;;;;;120.80;65.30;;;10.40;99.90;;;;;;5034167;28;20589;-70
2022/11/03 00:23:37;;;;;;;120.10;64.75;;;10.40;99.90;;;;;;5037292;28;20172;-70
2022/11/03 00:26:09;;;;;;;109.55;58.78;;;10.30;99.90;;;;;;5037180;28;20332;-70
2022/11/03 00:28:36;;;;;;;105.93;58.72;;;10.40;99.90;;;;;;5019543;28;20033;-70
2022/11/03 00:31:09;;;;;;;107.00;61.38;;;10.40;99.90;;;;;;5037112;28;20115;-70
2022/11/03 00:33:37;;;;;;;110.43;63.72;;;10.30;99.90;;;;;;5037159;28;20432;-70
2022/11/03 00:36:04;;;;;;;107.57;59.47;;;10.20;99.90;;;;;;5036932;28;20025;-70
2022/11/03 00:38:30;;;;;;;110.32;60.95;;;10.10;99.90;;;;;;5037099;28;20029;-70
2022/11/03 00:41:01;;;;;;;105.72;58.38;;;10.10;99.90;;;;;;5037058;28;20065;-70
2022/11/03 00:43:28;;;;;;;108.65;59.13;;;10.00;99.90;;;;;;5037171;28;20033;-70
2022/11/03 00:45:54;;;;;;;107.10;57.97;;;10.00;99.90;;;;;;5036962;28;20506;-70
2022/11/03 00:48:36;;;;;;;104.65;58.58;;;9.90;99.90;;;;;;5036664;28;20025;-70
2022/11/03 00:51:09;;;;;;;107.95;61.78;;;9.90;99.90;;;;;;5036937;28;20097;-70
2022/11/03 00:53:42;;;;;;;118.25;62.78;;;9.70;99.90;;;;;;5036880;28;20034;-70
2022/11/03 00:56:13;;;;;;;115.95;62.33;;;9.70;99.90;;;;;;5036709;28;20084;-70
2022/11/03 00:58:41;;;;;;;;;;;9.70;99.90;;;;;;5037365;28;20033;-70
2022/11/03 01:01:12;;;;;;;132.95;68.10;;;9.60;99.90;;;;;;5039020;28;19923;-70
2022/11/03 01:03:40;;;;;;;132.77;70.40;;;9.70;99.90;;;;;;5056560;28;20554;-70
2022/11/03 01:08:57;;;;;;;172.48;85.07;;;9.70;99.90;;;;;;5056394;28;20430;-70
2022/11/03 01:14:10;;;;;;;163.25;81.60;;;9.50;99.90;;;;;;5038071;28;20029;-70
2022/11/03 01:16:36;;;;;;;161.32;81.10;;;9.60;99.90;;;;;;5036272;28;20079;-70
2022/11/03 01:19:02;;;;;;;170.23;85.65;;;9.60;99.90;;;;;;5036472;28;20064;-70
2022/11/03 01:21:28;;;;;;;139.50;72.20;;;9.60;99.90;;;;;;5036702;28;20025;-70
2022/11/03 01:23:54;;;;;;;138.52;72.43;;;9.40;99.90;;;;;;5036556;28;20033;-70
2022/11/03 01:26:20;;;;;;;134.98;74.43;;;9.40;99.90;;;;;;5036279;28;20442;-70
2022/11/03 01:28:47;;;;;;;133.02;73.78;;;9.30;99.90;;;;;;5036322;28;20087;-70
2022/11/03 01:31:19;;;;;;;138.77;73.63;;;9.30;99.90;;;;;;5035997;28;20057;-70
2022/11/03 01:33:45;;;;;;;132.55;73.45;;;9.40;99.90;;;;;;5035939;28;20028;-70
2022/11/03 01:36:13;;;;;;;139.27;75.20;;;9.30;99.90;;;;;;5034183;28;20033;-70
2022/11/03 01:38:39;;;;;;;136.18;72.18;;;9.30;99.90;;;;;;5036102;28;20030;-70
2022/11/03 01:41:09;;;;;;;140.93;74.70;;;9.40;99.90;;;;;;5036073;28;20034;-70
2022/11/03 01:43:37;;;;;;;129.75;69.32;;;9.50;99.90;;;;;;5035717;28;20061;-70
2022/11/03 01:46:21;;;;;;;127.93;70.97;;;9.40;99.90;;;;;;5036095;28;20060;-70
2022/11/03 01:49:00;;;;;;;159.05;86.18;;;9.40;99.90;;;;;;5035798;28;20315;-70
2022/11/03 01:51:29;;;;;;;123.07;66.03;;;9.30;99.90;;;;;;5035846;28;20033;-70
2022/11/03 01:53:57;;;;;;;136.73;71.28;;;9.10;99.90;;;;;;5035657;28;20059;-70
2022/11/03 01:56:23;;;;;;;133.43;73.18;;;9.00;99.90;;;;;;5035613;28;20034;-70
2022/11/03 01:58:52;;;;;;;117.63;65.30;;;9.00;99.90;;;;;;5035368;28;20037;-70
2022/11/03 02:01:19;;;;;;;121.10;67.45;;;9.20;99.90;;;;;;5030259;28;20088;-70
2022/11/03 02:03:53;;;;;;;124.95;69.28;;;9.20;99.90;;;;;;5033996;28;20036;-70
2022/11/03 02:06:24;;;;;;;129.68;68.63;;;9.20;99.90;;;;;;5035146;28;20040;-70
2022/11/03 02:09:05;;;;;;;123.05;67.15;;;9.10;99.90;;;;;;5035595;28;20029;-70
2022/11/03 02:14:17;;;;;;;112.10;60.60;;;9.20;99.90;;;;;;5034969;28;20037;-70
2022/11/03 02:16:48;;;;;;;110.82;60.85;;;9.20;99.90;;;;;;5035616;28;20033;-70
2022/11/03 02:19:43;;;;;;;104.57;57.72;;;9.30;99.90;;;;;;5034807;28;20037;-70
2022/11/03 02:22:14;;;;;;;112.88;61.38;;;9.30;99.90;;;;;;5034865;28;20036;-70
2022/11/03 02:24:57;;;;;;;104.60;58.67;;;9.00;99.90;;;;;;5035553;28;20364;-70
2022/11/03 02:27:23;;;;;;;111.45;61.90;;;8.80;99.90;;;;;;5034666;28;20026;-70
2022/11/03 02:29:49;;;;;;;121.15;65.72;;;8.80;99.90;;;;;;5035161;28;20614;-70
2022/11/03 02:32:32;;;;;;;118.72;64.78;;;8.70;99.90;;;;;;5034779;28;20029;-70
2022/11/03 02:35:11;;;;;;;123.55;65.72;;;8.70;99.90;;;;;;5034787;28;20104;-70
2022/11/03 02:37:42;;;;;;;141.30;68.35;;;8.70;99.90;;;;;;5034832;28;20033;-70
2022/11/03 02:40:16;;;;;;;;;;;8.70;99.90;;;;;;5035056;28;20025;-70
2022/11/03 02:42:46;;;;;;;138.27;66.45;;;8.70;99.90;;;;;;5034948;28;19999;-70
2022/11/03 02:45:16;;;;;;;137.35;69.53;;;8.70;99.90;;;;;;5033891;28;20510;-70
2022/11/03 02:47:43;;;;;;;130.05;65.93;;;8.80;99.90;;;;;;5034646;28;20025;-70
2022/11/03 02:50:09;;;;;;;139.05;68.07;;;8.70;99.90;;;;;;5034481;28;20061;-70
2022/11/03 02:52:42;;;;;;;124.93;63.70;;;8.70;99.90;;;;;;5034658;28;20348;-70
2022/11/03 02:55:26;;;;;;;109.20;58.33;;;8.70;99.90;;;;;;5034251;28;20456;-70
2022/11/03 02:58:30;;;;;;;91.10;50.38;;;8.80;99.90;;;;;;5034613;28;20057;-70
2022/11/03 03:01:26;;;;;;;88.40;47.17;;;8.70;99.90;;;;;;5034228;28;20476;-70
2022/11/03 03:04:03;;;;;;;88.65;49.15;;;8.60;99.90;;;;;;5034366;28;20044;-70
2022/11/03 03:06:40;;;;;;;94.13;53.55;;;8.60;99.90;;;;;;5034288;28;20088;-70
2022/11/03 03:09:12;;;;;;;100.97;53.95;;;8.40;99.90;;;;;;5034086;28;20072;-70
2022/11/03 03:11:41;;;;;;;104.38;55.20;;;8.40;99.90;;;;;;5034286;28;20037;-70
2022/11/03 03:14:25;;;;;;;105.22;58.08;;;8.50;99.90;;;;;;5046952;28;20025;-70
2022/11/03 03:17:06;;;;;;;98.35;53.33;;;8.40;99.90;;;;;;5054183;28;20035;-70
2022/11/03 03:19:42;;;;;;;109.57;54.97;;;8.20;99.90;;;;;;5054120;28;20082;-70
2022/11/03 03:22:36;;;;;;;98.07;51.40;;;8.30;99.90;;;;;;5053939;28;20076;-70
2022/11/03 03:25:13;;;;;;;99.43;52.88;;;8.30;99.90;;;;;;5053776;28;20029;-70
2022/11/03 03:27:44;;;;;;;102.20;54.30;;;8.20;99.90;;;;;;5053980;28;20064;-70
2022/11/03 03:30:11;;;;;;;105.57;54.20;;;8.20;99.90;;;;;;5053641;28;20032;-70
2022/11/03 03:32:46;;;;;;;91.30;53.88;;;8.20;99.90;;;;;;5053821;28;20078;-70
2022/11/03 03:35:19;;;;;;;99.13;55.88;;;8.20;99.90;;;;;;5053525;28;20387;-70
2022/11/03 03:37:49;;;;;;;100.05;55.10;;;8.30;99.90;;;;;;5031429;28;20124;-70
2022/11/03 03:40:21;;;;;;;111.10;58.95;;;8.30;99.90;;;;;;5033820;28;20696;-70
2022/11/03 03:42:48;;;;;;;105.93;55.33;;;8.30;99.90;;;;;;5033929;28;20430;-70
2022/11/03 03:45:15;;;;;;;105.32;54.10;;;8.30;99.90;;;;;;5016061;28;20022;-70
2022/11/03 03:47:42;;;;;;;110.78;56.30;;;8.40;99.90;;;;;;5033851;28;20116;-70
2022/11/03 03:50:08;;;;;;;107.78;57.25;;;8.30;99.90;;;;;;5033830;28;20021;-70
2022/11/03 03:52:35;;;;;;;111.80;58.28;;;8.30;99.90;;;;;;5033867;28;20041;-70
2022/11/03 03:55:01;;;;;;;110.07;57.38;;;8.30;99.90;;;;;;5034187;28;20025;-70
2022/11/03 03:57:30;;;;;;;108.35;55.00;;;8.20;99.90;;;;;;5037975;28;20029;-70
2022/11/03 03:59:56;;;;;;;112.85;56.13;;;8.30;99.90;;;;;;5037661;28;20084;-70
2022/11/03 04:02:22;;;;;;;142.77;65.60;;;8.10;99.90;;;;;;5037553;28;20077;-70
2022/11/03 04:04:48;;;;;;;126.70;60.80;;;8.10;99.90;;;;;;5037724;28;20036;-70
2022/11/03 04:09:58;;;;;;;134.55;62.10;;;8.00;99.90;;;;;;5037621;28;20022;-70
2022/11/03 04:23:26;;;;;;;102.97;54.70;;;8.00;99.90;;;;;;5057379;28;20154;-70
2022/11/03 04:25:56;;;;;;;101.63;54.30;;;7.90;99.90;;;;;;5057328;28;20068;-70
2022/11/03 04:28:24;;;;;;;102.30;53.93;;;7.90;99.90;;;;;;5057091;28;20395;-70
2022/11/03 04:30:50;;;;;;;104.25;53.80;;;7.90;99.90;;;;;;5057405;28;20257;-71
2022/11/03 04:33:18;;;;;;;99.07;51.15;;;7.80;99.90;;;;;;5057028;28;20501;-70
2022/11/03 04:35:46;;;;;;;93.65;51.30;;;7.80;99.90;;;;;;5057156;28;20032;-70
2022/11/03 04:38:14;;;;;;;96.78;51.25;;;7.90;99.90;;;;;;5048988;28;20113;-70
2022/11/03 04:40:47;;;;;;;93.72;51.35;;;8.00;99.90;;;;;;5037284;28;20387;-70
2022/11/03 04:43:15;;;;;;;95.18;51.15;;;8.00;99.90;;;;;;5036799;28;20531;-70
2022/11/03 04:45:46;;;;;;;90.22;48.03;;;8.00;99.90;;;;;;5037212;28;20126;-70
2022/11/03 04:48:22;;;;;;;77.30;44.22;;;8.00;99.90;;;;;;5036625;28;20475;-70
2022/11/03 04:50:54;;;;;;;102.28;51.97;;;7.90;99.90;;;;;;5036974;28;20088;-70
2022/11/03 04:53:21;;;;;;;102.60;52.28;;;7.80;99.90;;;;;;5036621;28;20726;-70
2022/11/03 04:55:51;;;;;;;95.68;50.35;;;7.70;99.90;;;;;;5036772;28;20020;-70
2022/11/03 04:58:33;;;;;;;92.53;48.42;;;7.70;99.90;;;;;;5036558;28;20497;-70
2022/11/03 05:01:00;;;;;;;91.20;49.10;;;7.70;99.90;;;;;;5034450;28;20468;-70
2022/11/03 05:03:32;;;;;;;96.78;50.08;;;7.60;99.90;;;;;;5032371;28;20037;-70
2022/11/03 05:06:00;;;;;;;102.43;51.08;;;7.70;99.90;;;;;;5036441;28;20029;-70
2022/11/03 05:08:26;;;;;;;104.30;54.60;;;7.60;99.90;;;;;;5035913;28;20056;-70
2022/11/03 05:10:52;;;;;;;113.85;52.35;;;7.70;99.90;;;;;;5036426;28;20485;-70
2022/11/03 05:13:22;;;;;;;90.55;49.42;;;7.60;99.90;;;;;;5036152;28;20479;-70
2022/11/03 05:15:56;;;;;;;94.75;50.00;;;7.70;99.90;;;;;;5036395;28;20475;-70
2022/11/03 05:18:29;;;;;;;102.07;49.45;;;7.70;99.90;;;;;;5036493;28;20025;-70
2022/11/03 05:20:59;;;;;;;102.18;47.50;;;7.70;99.90;;;;;;5036361;28;20143;-70
2022/11/03 05:23:29;;;;;;;98.15;51.50;;;7.70;99.90;;;;;;5036161;28;20029;-70
2022/11/03 05:25:57;;;;;;;94.40;49.10;;;7.50;99.90;;;;;;5035739;28;20104;-70
2022/11/03 05:28:29;;;;;;;119.55;59.67;;;7.50;99.90;;;;;;5036249;28;20025;-70
2022/11/03 05:30:55;;;;;;;120.95;61.17;;;7.50;99.90;;;;;;5036124;28;20033;-70
2022/11/03 05:33:30;;;;;;;124.32;56.03;;;7.50;99.90;;;;;;5035787;28;20475;-70
2022/11/03 05:35:59;;;;;;;109.97;53.80;;;7.60;99.90;;;;;;5036004;28;20057;-70
2022/11/03 05:38:31;;;;;;;105.20;56.40;;;7.60;99.90;;;;;;5035697;28;20064;-70
2022/11/03 05:40:58;;;;;;;100.03;52.00;;;7.50;99.90;;;;;;5035833;28;20422;-70
2022/11/03 05:43:26;;;;;;;112.53;54.03;;;7.40;99.90;;;;;;5035886;28;20033;-70
2022/11/03 05:45:56;;;;;;;96.95;50.42;;;7.40;99.90;;;;;;5036090;28;20037;-70
2022/11/03 05:48:36;;;;;;;103.32;50.67;;;7.40;99.90;;;;;;5035706;28;20037;-70
2022/11/03 05:51:14;;;;;;;87.50;46.65;;;7.40;99.90;;;;;;5035634;28;20092;-70
2022/11/03 05:53:43;;;;;;;90.82;48.85;;;7.50;99.90;;;;;;5035698;28;20031;-70
2022/11/03 05:56:17;;;;;;;98.18;51.05;;;7.60;99.90;;;;;;5035471;28;20041;-70
2022/11/03 05:58:43;;;;;;;109.88;52.63;;;7.70;99.90;;;;;;5035275;28;20037;-70
2022/11/03 06:01:27;;;;;;;100.50;48.00;;;7.90;99.90;;;;;;5035197;28;20072;-70
2022/11/03 06:03:54;;;;;;;99.03;50.42;;;8.20;99.90;;;;;;5035751;28;20026;-70
2022/11/03 06:06:33;;;;;;;110.43;51.33;;;8.50;99.90;;;;;;5035074;28;20037;-70
2022/11/03 06:09:12;;;;;;;100.80;52.45;;;8.90;99.90;;;;;;5035334;28;20105;-70
2022/11/03 06:11:39;;;;;;;104.97;52.20;;;9.20;99.90;;;;;;5043732;28;20537;-70
2022/11/03 06:14:21;;;;;;;110.90;53.90;;;9.50;99.90;;;;;;5044849;28;20460;-70
2022/11/03 06:16:51;;;;;;;95.70;50.38;;;9.80;99.90;;;;;;5034883;28;20032;-70
2022/11/03 06:19:23;;;;;;;94.18;46.42;;;10.20;99.90;;;;;;5032709;28;20038;-70
2022/11/03 06:21:51;;;;;;;87.13;45.50;;;10.40;99.90;;;;;;5035134;28;20040;-70
2022/11/03 06:24:19;;;;;;;77.25;41.42;;;10.70;99.90;;;;;;5015340;28;20045;-70
2022/11/03 06:26:48;;;;;;;82.43;44.42;;;11.10;99.90;;;;;;5033599;28;20108;-70
2022/11/03 06:29:17;;;;;;;88.28;46.25;;;11.70;99.90;;;;;;5034671;28;20065;-70
2022/11/03 06:31:47;;;;;;;95.43;49.55;;;12.40;99.90;;;;;;5033959;28;20391;-70
2022/11/03 06:34:28;;;;;;;94.43;49.28;;;12.80;99.90;;;;;;5031800;28;20076;-70
2022/11/03 06:36:57;;;;;;;93.13;48.85;;;13.40;99.90;;;;;;5032920;28;20042;-70
2022/11/03 06:39:26;;;;;;;90.55;51.00;;;13.80;99.90;;;;;;5037299;28;20037;-70
2022/11/03 06:42:12;;;;;;;93.90;51.47;;;13.90;99.90;;;;;;5031470;28;20025;-71
2022/11/03 06:44:41;;;;;;;102.05;52.88;;;13.20;99.90;;;;;;5031828;28;20178;-71
2022/11/03 06:47:31;;;;;;;97.00;51.83;;;12.90;99.90;;;;;;5031687;28;20071;-70
2022/11/03 06:50:07;;;;;;;103.15;51.85;;;12.60;99.90;;;;;;5029110;28;20029;-70
2022/11/03 06:52:38;;;;;;;110.50;53.30;;;13.00;99.90;;;;;;5027829;28;20053;-70
2022/11/03 06:55:07;;;;;;;104.93;52.45;;;13.40;99.90;;;;;;5022716;28;20510;-71
2022/11/03 06:57:45;;;;;;;115.72;56.05;;;13.80;99.90;;;;;;5032861;28;20124;-71
2022/11/03 07:00:27;;;;;;;104.03;54.75;;;14.20;99.90;;;;;;5028967;28;20033;-70
2022/11/03 07:03:07;;;;;;;106.35;53.97;;;14.30;99.20;;;;;;5048789;28;20072;-71
2022/11/03 07:05:33;;;;;;;113.90;54.90;;;14.70;97.50;;;;;;5047761;28;20029;-70
2022/11/03 07:08:21;;;;;;;101.75;55.78;;;15.00;96.60;;;;;;5053248;28;20091;-71
2022/11/03 07:10:59;;;;;;;94.50;51.55;;;15.40;95.80;;;;;;5051129;28;20115;-71
2022/11/03 07:13:27;;;;;;;102.72;53.05;;;15.40;94.40;;;;;;5050671;28;20056;-71
2022/11/03 07:15:54;;;;;;;101.13;57.13;;;15.90;93.20;;;;;;5052941;28;20064;-71
2022/11/03 07:18:21;;;;;;;102.32;54.40;;;15.70;92.50;;;;;;5052361;28;20032;-71
2022/11/03 07:20:48;;;;;;;110.47;55.83;;;15.70;93.90;;;;;;5052370;28;20021;-71
2022/11/03 07:23:19;;;;;;;106.90;56.35;;;15.60;93.70;;;;;;5036699;28;20025;-71
2022/11/03 07:25:52;;;;;;;112.43;57.08;;;16.00;92.50;;;;;;5055238;28;20020;-71
2022/11/03 07:28:18;;;;;;;99.03;52.50;;;16.50;92.00;;;;;;5052302;28;20029;-72
2022/11/03 07:30:44;;;;;;;114.53;55.60;;;16.20;91.30;;;;;;5066529;28;20390;-72
2022/11/03 07:33:23;;;;;;;104.30;54.85;;;16.00;91.20;;;;;;5051091;28;20037;-72
2022/11/03 07:35:50;;;;;;;101.85;53.63;;;17.00;90.70;;;;;;5053079;28;20032;-72
2022/11/03 07:38:20;;;;;;;113.72;54.90;;;17.60;88.40;;;;;;5052199;28;20470;-72
2022/11/03 07:40:46;;;;;;;108.35;54.72;;;17.80;86.40;;;;;;5057962;28;20025;-72
2022/11/03 07:43:29;;;;;;;105.53;54.83;;;18.00;81.60;;;;;;5058022;28;20029;-72
2022/11/03 07:45:58;;;;;;;88.13;50.03;;;18.20;81.60;;;;;;5050365;28;20037;-73
2022/11/03 07:48:33;;;;;;;97.90;50.55;;;18.30;80.90;;;;;;5049230;28;20113;-72
2022/11/03 07:51:15;;;;;;;89.75;48.72;;;18.50;79.60;;;;;;5044918;28;20033;-73
2022/11/03 07:53:44;;;;;;;84.65;45.88;;;17.90;81.00;;;;;;5050617;28;20025;-73
2022/11/03 07:56:25;;;;;;;93.13;49.97;;;18.50;79.30;;;;;;5036136;28;20513;-72
2022/11/03 07:59:00;;;;;;;;;;;18.90;78.20;;;;;;5052003;28;20021;-73
2022/11/03 08:01:33;;;;;;;88.95;46.28;;;19.30;76.10;;;;;;5049687;28;19920;-73
2022/11/03 08:04:08;;;;;;;91.03;46.63;;;18.50;76.30;;;;;;5050547;28;20029;-72
2022/11/03 08:06:34;;;;;;;89.68;47.35;;;19.00;75.00;;;;;;5055961;28;20269;-73
2022/11/03 08:09:00;;;;;;;77.32;43.15;;;18.90;76.20;;;;;;5056105;28;20112;-73
2022/11/03 08:11:26;;;;;;;76.68;45.03;;;19.60;75.50;;;;;;5062168;28;20355;-73
2022/11/03 08:13:53;;;;;;;82.43;44.65;;;19.60;72.60;;;;;;5062235;28;20078;-72
2022/11/03 08:16:19;;;;;;;82.05;46.28;;;20.00;71.00;;;;;;5051253;28;20426;-73
2022/11/03 08:18:49;;;;;;;79.75;44.55;;;20.00;69.90;;;;;;5049743;28;20144;-73
2022/11/03 08:21:16;;;;;;;81.20;45.35;;;20.20;71.40;;;;;;5049709;28;20086;-73
2022/11/03 08:24:03;;;;;;;88.93;46.38;;;20.40;69.10;;;;;;5045648;28;20043;-73
2022/11/03 08:26:32;;;;;;;79.57;43.33;;;20.80;68.60;;;;;;5030974;28;20429;-73
2022/11/03 08:28:58;;;;;;;79.07;42.65;;;21.30;66.20;;;;;;5052491;28;20025;-73
2022/11/03 08:31:24;;;;;;;79.30;44.28;;;21.20;65.40;;;;;;5052644;28;20025;-73
2022/11/03 08:33:50;;;;;;;89.93;44.55;;;21.00;65.20;;;;;;5055879;28;20119;-73
2022/11/03 08:36:16;;;;;;;89.35;45.63;;;21.40;65.90;;;;;;5052621;28;20037;-72
2022/11/03 08:38:42;;;;;;;101.40;47.15;;;20.70;66.90;;;;;;5032465;28;20125;-73
2022/11/03 08:41:08;;;;;;;80.15;48.50;;;21.00;65.40;;;;;;5051664;28;20025;-73
2022/11/03 08:43:33;;;;;;;96.32;51.78;;;21.30;65.30;;;;;;5056185;28;20493;-73
2022/11/03 08:45:59;;;;;;;93.25;52.83;;;21.50;63.60;;;;;;5056587;28;20079;-73
2022/11/03 08:48:26;;;;;;;96.10;52.05;;;21.60;63.50;;;;;;5057193;28;20029;-73
2022/11/03 08:50:53;;;;;;;104.30;52.45;;;21.40;63.10;;;;;;5057752;28;20021;-73
2022/11/03 08:53:20;;;;;;;88.07;50.42;;;21.10;65.40;;;;;;5047662;28;20029;-73
2022/11/03 08:55:45;;;;;;;92.90;49.72;;;21.40;65.10;;;;;;5057445;28;20032;-73
2022/11/03 08:58:11;;;;;;;106.50;51.05;;;21.90;63.90;;;;;;5056463;28;20028;-73
2022/11/03 09:00:37;;;;;;;89.28;50.95;;;22.20;62.50;;;;;;5056403;28;20035;-73
2022/11/03 09:03:03;;;;;;;90.63;50.78;;;22.50;61.50;;;;;;5012754;28;20054;-73
2022/11/03 09:05:30;;;;;;;82.10;49.22;;;22.40;60.80;;;;;;5021090;28;20029;-73
2022/11/03 09:07:56;;;;;;;91.68;47.28;;;22.70;60.20;;;;;;5040631;28;20439;-73
2022/11/03 09:10:22;;;;;;;86.68;45.97;;;23.30;59.10;;;;;;5034756;28;20103;-74
2022/11/03 09:12:48;;;;;;;78.78;43.70;;;23.40;58.50;;;;;;5036761;28;20033;-73
2022/11/03 09:15:13;;;;;;;93.55;43.40;;;23.60;56.50;;;;;;5038046;28;20019;-74
2022/11/03 09:17:39;;;;;;;68.72;41.38;;;23.50;56.90;;;;;;5035545;28;20152;-73
2022/11/03 09:20:06;;;;;;;78.95;42.53;;;23.70;55.70;;;;;;5036186;28;20372;-74
2022/11/03 09:22:32;;;;;;;81.70;43.15;;;23.90;55.70;;;;;;5036626;28;20120;-74
2022/11/03 09:24:58;;;;;;;71.47;41.67;;;23.80;54.60;;;;;;5036038;28;20029;-74
2022/11/03 09:27:24;;;;;;;74.38;43.60;;;23.90;56.10;;;;;;5036084;28;20083;-74
2022/11/03 09:29:50;;;;;;;75.43;45.75;;;24.10;55.60;;;;;;5018607;28;20044;-74
2022/11/03 09:32:19;;;;;;;73.10;43.15;;;24.00;55.30;;;;;;5018586;28;20033;-73
2022/11/03 09:34:45;;;;;;;83.43;43.95;;;24.00;55.30;;;;;;5038463;28;20463;-74
2022/11/03 09:37:11;;;;;;;73.00;43.65;;;24.00;54.50;;;;;;5041741;28;20036;-74
2022/11/03 09:39:37;;;;;;;86.28;45.45;;;24.20;54.30;;;;;;5036616;28;20155;-74
2022/11/03 09:42:04;;;;;;;93.30;45.63;;;23.70;54.40;;;;;;5033926;28;20036;-74
2022/11/03 09:44:35;;;;;;;90.72;46.55;;;23.20;56.80;;;;;;5034067;28;20021;-74
2022/11/03 09:47:11;;;;;;;85.32;44.58;;;23.90;55.90;;;;;;5042432;28;20442;-74
2022/11/03 09:49:41;;;;;;;75.28;46.17;;;24.20;55.10;;;;;;5038035;28;20022;-74
2022/11/03 09:52:22;;;;;;;80.15;45.17;;;24.50;54.10;;;;;;5035777;28;20021;-74
2022/11/03 09:54:50;;;;;;;86.95;49.05;;;24.90;53.40;;;;;;5037334;28;20026;-74
2022/11/03 09:57:16;;;;;;;82.93;47.20;;;25.30;52.50;;;;;;5034632;28;20467;-75
2022/11/03 09:59:49;;;;;;;73.28;44.10;;;25.30;51.60;;;;;;5034540;28;20383;-74
2022/11/03 10:02:31;;;;;;;73.40;44.72;;;25.40;51.00;;;;;;5047259;28;20053;-72
2022/11/03 10:05:01;;;;;;;86.18;43.65;;;25.60;50.80;;;;;;5054746;28;20078;-74
2022/11/03 10:07:28;;;;;;;;;;;25.80;50.20;;;;;;5053726;28;20025;-74
2022/11/03 10:09:57;;;;;;;81.53;43.13;;;25.20;51.40;;;;;;5055547;28;19991;-75
2022/11/03 10:12:24;;;;;;;76.75;41.72;;;25.80;51.10;;;;;;5049332;28;20021;-74
2022/11/03 10:14:51;;;;;;;79.40;44.53;;;25.70;51.00;;;;;;5053166;28;20043;-74
2022/11/03 10:17:25;;;;;;;77.82;41.67;;;25.90;49.40;;;;;;5038427;28;20037;-74
2022/11/03 10:19:54;;;;;;;74.53;43.08;;;25.60;49.40;;;;;;5055783;28;20029;-74
2022/11/03 10:22:21;;;;;;;76.03;41.58;;;25.50;50.30;;;;;;5054971;28;20037;-74
2022/11/03 10:24:47;;;;;;;78.25;40.55;;;25.60;49.60;;;;;;5036975;28;20120;-73
2022/11/03 10:27:25;;;;;;;77.03;41.28;;;25.60;50.60;;;;;;5054014;28;20036;-74
2022/11/03 10:30:12;;;;;;;83.28;43.80;;;25.70;51.00;;;;;;5053264;28;20028;-75
2022/11/03 10:32:40;;;;;;;67.90;39.17;;;26.30;49.50;;;;;;5055219;28;20029;-75
2022/11/03 10:35:31;;;;;;;76.85;40.45;;;26.30;49.20;;;;;;5055652;28;20063;-75
2022/11/03 10:38:29;;;;;;;80.82;41.67;;;26.50;49.10;;;;;;5049906;28;20437;-76
2022/11/03 10:41:07;;;;;;;85.57;42.47;;;26.70;48.40;;;;;;5054439;28;20037;-76
2022/11/03 10:43:33;;;;;;;75.07;40.38;;;27.00;47.00;;;;;;5055617;28;20486;-76
2022/11/03 10:46:18;;;;;;;77.75;42.65;;;27.50;45.70;;;;;;5053634;28;20021;-75
2022/11/03 10:49:01;;;;;;;78.28;36.85;;;26.90;46.20;;;;;;5054344;28;20029;-76
2022/11/03 10:51:28;;;;;;;82.60;41.60;;;26.70;46.80;;;;;;5055503;28;20040;-75
2022/11/03 10:53:57;;;;;;;73.53;39.72;;;27.10;46.50;;;;;;5055688;28;20542;-76
2022/11/03 10:56:24;;;;;;;84.00;42.30;;;27.30;46.30;;;;;;5055270;28;20024;-75
2022/11/03 10:58:50;;;;;;;84.38;43.20;;;27.70;46.20;;;;;;5054918;28;20064;-76
2022/11/03 11:01:16;;;;;;;84.97;42.17;;;27.90;45.80;;;;;;5054353;28;20061;-75
2022/11/03 11:03:43;;;;;;;88.20;42.70;;;28.10;44.90;;;;;;5054685;28;20159;-76
2022/11/03 11:06:29;;;;;;;82.72;40.47;;;28.10;43.60;;;;;;5052972;28;20029;-76
2022/11/03 11:09:03;;;;;;;81.32;40.22;;;28.00;43.90;;;;;;5052778;28;20033;-75
2022/11/03 11:11:29;;;;;;;93.35;43.22;;;28.00;43.50;;;;;;5052765;28;20025;-76
2022/11/03 11:14:33;;;;;;;78.15;37.88;;;27.30;45.70;;;;;;5055339;28;20636;-79
2022/11/03 11:17:00;;;;;;;74.82;35.88;;;27.80;43.90;;;;;;5055327;28;20108;-77
2022/11/03 11:19:28;;;;;;;99.15;41.92;;;27.60;43.80;;;;;;5054464;28;20053;-77
2022/11/03 11:21:53;;;;;;;82.43;40.78;;;28.00;45.50;;;;;;5054013;28;20398;-74
2022/11/03 11:24:41;;;;;;;74.00;37.92;;;27.90;43.70;;;;;;5054296;28;20029;-75
2022/11/03 11:27:32;;;;;;;69.15;33.08;;;28.10;43.20;;;;;;5053926;28;20036;-74
2022/11/03 11:29:59;;;;;;;62.53;32.35;;;28.10;43.10;;;;;;5054225;28;20505;-75
2022/11/03 11:32:43;;;;;;;76.32;37.42;;;27.50;44.20;;;;;;5053950;28;20025;-76
2022/11/03 11:35:22;;;;;;;66.55;32.13;;;27.50;44.30;;;;;;5054140;28;20021;-76
2022/11/03 11:37:48;;;;;;;75.70;32.22;;;27.10;44.30;;;;;;5054142;28;20017;-75
2022/11/03 11:40:34;;;;;;;77.07;35.10;;;27.00;45.50;;;;;;5053964;28;20032;-75
2022/11/03 11:43:03;;;;;;;87.20;37.88;;;26.80;46.00;;;;;;5053730;28;20079;-75
2022/11/03 11:46:06;;;;;;;72.50;38.33;;;26.90;45.50;;;;;;5054784;28;20103;-76
2022/11/03 11:48:33;;;;;;;77.80;36.65;;;26.80;46.70;;;;;;5053895;28;20475;-76
2022/11/03 11:51:00;;;;;;;79.03;38.17;;;26.80;47.60;;;;;;5053843;28;20025;-75
2022/11/03 11:53:28;;;;;;;82.82;37.60;;;27.00;46.60;;;;;;5054046;28;20127;-75
2022/11/03 11:56:00;;;;;;;80.18;37.33;;;27.20;46.80;;;;;;5053085;28;20352;-75
2022/11/03 11:58:40;;;;;;;72.35;35.17;;;27.70;46.20;;;;;;5050276;28;21672;-76
2022/11/03 12:01:22;;;;;;;71.60;36.35;;;28.00;44.50;;;;;;5049275;28;20415;-75
2022/11/03 12:03:50;;;;;;;68.82;33.35;;;28.00;44.60;;;;;;5028102;28;20108;-76
2022/11/03 12:06:30;;;;;;;72.90;36.70;;;27.80;43.30;;;;;;5032215;28;20037;-75
2022/11/03 12:09:04;;;;;;;65.57;29.90;;;27.80;45.10;;;;;;5038101;28;20112;-75
2022/11/03 12:11:50;;;;;;;53.80;26.92;;;27.80;44.80;;;;;;5032370;28;20018;-76
2022/11/03 12:14:22;;;;;;;42.75;21.85;;;27.60;43.00;;;;;;5023591;28;20049;-77
2022/11/03 12:16:48;;;;;;;54.92;21.40;;;26.90;43.60;;;;;;5041375;28;20080;-76
2022/11/03 12:19:33;;;;;;;46.55;19.05;;;26.60;44.20;;;;;;5037169;28;20305;-77
2022/11/03 12:21:59;;;;;;;48.10;20.20;;;26.60;43.70;;;;;;5032152;28;20025;-77
2022/11/03 12:24:31;;;;;;;44.75;22.40;;;26.40;45.20;;;;;;5037710;28;20120;-76
2022/11/03 12:26:58;;;;;;;43.85;19.65;;;26.30;44.40;;;;;;5037536;28;20026;-76
2022/11/03 12:29:24;;;;;;;44.80;20.30;;;26.00;43.40;;;;;;5036903;28;20572;-69
2022/11/03 12:31:53;;;;;;;41.45;20.48;;;25.60;47.20;;;;;;5037260;28;20473;-69
2022/11/03 12:34:22;;;;;;;48.78;21.95;;;25.90;44.90;;;;;;5037583;28;20022;-70
2022/11/03 12:36:47;;;;;;;49.72;22.65;;;25.50;46.20;;;;;;5037357;28;20026;-70
2022/11/03 12:39:13;;;;;;;46.72;22.50;;;25.30;46.80;;;;;;5035354;28;20486;-70
2022/11/03 12:41:39;;;;;;;46.80;21.17;;;25.20;47.70;;;;;;5037040;28;20037;-69
2022/11/03 12:44:05;;;;;;;44.33;20.33;;;25.20;47.40;;;;;;5036942;28;20040;-69
2022/11/03 12:46:31;;;;;;;40.88;19.35;;;24.90;47.40;;;;;;5028731;28;20025;-69
2022/11/03 12:48:57;;;;;;;69.90;22.90;;;25.00;48.00;;;;;;5036311;28;20394;-69
2022/11/03 12:51:24;;;;;;;47.13;19.48;;;24.90;48.30;;;;;;5036497;28;20637;-69
2022/11/03 12:53:50;;;;;;;63.00;22.02;;;24.60;47.70;;;;;;5036612;28;20021;-69
2022/11/03 12:56:17;;;;;;;45.22;20.98;;;24.80;48.30;;;;;;5036466;28;20414;-69
2022/11/03 12:58:46;;;;;;;44.75;20.33;;;23.90;48.90;;;;;;5036384;28;20052;-69
2022/11/03 13:01:12;;;;;;;40.33;17.83;;;24.10;50.50;;;;;;5038343;28;20033;-69
2022/11/03 13:03:39;;;;;;;44.55;19.52;;;24.30;49.10;;;;;;5055764;28;20035;-69
2022/11/03 13:06:08;;;;;;;41.92;17.70;;;24.50;49.60;;;;;;5038592;28;20118;-69
2022/11/03 13:08:35;;;;;;;68.70;19.53;;;24.70;48.20;;;;;;5059800;28;20025;-69
2022/11/03 13:11:03;;;;;;;49.25;16.83;;;25.00;47.50;;;;;;5070846;28;20304;-69